createdAt,value
2023-05-04T00:00:10.816Z,95247.34
2023-05-04T00:02:38.714Z,95249.91
2023-05-04T00:05:06.462Z,95240.53
2023-05-04T00:07:33.637Z,95237.47
2023-05-04T00:10:01.393Z,95248.19
2023-05-04T00:12:28.627Z,95237.50
2023-05-04T00:14:55.692Z,95232.09
2023-05-04T00:17:22.523Z,95238.59
2023-05-04T00:19:49.456Z,95221.00
2023-05-04T00:22:16.984Z,95232.50
2023-05-04T00:24:46.553Z,95220.56
2023-05-04T00:27:13.285Z,95234.97
2023-05-04T00:29:40.343Z,95226.59
2023-05-04T00:32:07.243Z,95229.22
2023-05-04T00:34:34.387Z,95209.53
2023-05-04T00:37:01.547Z,95213.78
2023-05-04T00:39:28.461Z,95221.59
2023-05-04T00:41:56.361Z,95220.28
2023-05-04T00:44:26.369Z,95203.34
2023-05-04T00:46:53.937Z,95221.41
2023-05-04T00:49:21.720Z,95215.44
2023-05-04T00:51:50.410Z,95217.34
2023-05-04T00:54:20.605Z,95217.09
2023-05-04T00:56:47.990Z,95212.00
2023-05-04T00:59:14.860Z,95217.34
2023-05-04T01:01:42.417Z,95204.00
2023-05-04T01:04:09.469Z,95192.66
2023-05-04T01:06:36.308Z,95212.38
2023-05-04T01:09:22.399Z,95204.13
2023-05-04T01:12:00.955Z,95204.81
2023-05-04T01:14:28.771Z,95201.63
2023-05-04T01:16:58.911Z,95207.19
2023-05-04T01:19:28.169Z,95202.63
2023-05-04T01:21:56.690Z,95208.66
2023-05-04T01:24:25.595Z,95203.53
2023-05-04T01:27:05.833Z,95214.06
2023-05-04T01:29:43.412Z,95206.16
2023-05-04T01:32:14.230Z,95206.16
2023-05-04T01:34:41.774Z,95209.38
2023-05-04T01:37:09.101Z,95211.91
2023-05-04T01:39:36.273Z,95211.91
2023-05-04T01:42:03.144Z,95219.22
2023-05-04T01:44:29.941Z,95208.22
2023-05-04T01:46:57.004Z,95212.00
2023-05-04T01:49:23.757Z,95215.97
2023-05-04T01:51:50.972Z,95203.34
2023-05-04T01:54:17.754Z,95214.91
2023-05-04T01:56:44.547Z,95207.53
2023-05-04T01:59:12.257Z,95213.59
2023-05-04T02:01:40.192Z,95210.72
2023-05-04T02:04:07.117Z,95210.09
2023-05-04T02:06:34.106Z,95216.72
2023-05-04T02:09:01.007Z,95208.19
2023-05-04T02:11:27.979Z,95211.72
2023-05-04T02:13:54.963Z,95210.44
2023-05-04T02:16:21.888Z,95193.00
2023-05-04T02:18:48.739Z,95199.88
2023-05-04T02:21:15.869Z,95204.88
2023-05-04T02:23:43.994Z,95197.91
2023-05-04T02:26:11.639Z,95210.88
2023-05-04T02:28:38.420Z,95209.75
2023-05-04T02:31:05.272Z,95216.22
2023-05-04T02:33:32.036Z,95208.06
2023-05-04T02:35:58.784Z,95211.94
2023-05-04T02:38:26.414Z,95204.53
2023-05-04T02:40:53.135Z,95211.13
2023-05-04T02:43:20.210Z,95205.59
2023-05-04T02:45:47.112Z,95198.34
2023-05-04T02:48:13.824Z,95215.16
2023-05-04T02:50:40.976Z,95212.66
2023-05-04T02:53:07.682Z,95211.56
2023-05-04T02:55:34.702Z,95212.25
2023-05-04T02:58:02.051Z,95203.03
2023-05-04T03:00:28.818Z,95206.59
2023-05-04T03:02:55.607Z,95200.66
2023-05-04T03:05:22.550Z,95210.88
2023-05-04T03:07:50.874Z,95210.50
2023-05-04T03:10:17.614Z,95205.38
2023-05-04T03:12:45.281Z,95195.78
2023-05-04T03:15:12.397Z,95204.22
2023-05-04T03:17:39.433Z,95210.56
2023-05-04T03:20:08.073Z,95210.66
2023-05-04T03:22:35.526Z,95205.91
2023-05-04T03:25:02.669Z,95206.16
2023-05-04T03:27:29.917Z,95218.91
2023-05-04T03:29:57.004Z,95211.84
2023-05-04T03:32:24.928Z,95207.66
2023-05-04T03:34:52.308Z,95213.03
2023-05-04T03:37:21.276Z,95208.53
2023-05-04T03:39:48.498Z,95219.22
2023-05-04T03:42:15.276Z,95206.31
2023-05-04T03:44:42.029Z,95201.78
2023-05-04T03:47:09.270Z,95208.56
2023-05-04T03:49:35.953Z,95197.16
2023-05-04T03:52:02.762Z,95180.84
2023-05-04T03:54:29.520Z,95213.44
2023-05-04T03:56:56.562Z,95202.38
2023-05-04T03:59:23.899Z,95196.88
2023-05-04T04:01:52.464Z,95199.56
2023-05-04T04:04:19.277Z,95209.34
2023-05-04T04:06:46.604Z,95198.88
2023-05-04T04:09:13.637Z,95203.22
2023-05-04T04:11:40.798Z,95195.66
2023-05-04T04:14:07.677Z,95199.25
2023-05-04T04:16:34.523Z,95197.34
2023-05-04T04:19:02.149Z,95200.78
2023-05-04T04:21:29.303Z,95202.91
2023-05-04T04:23:56.152Z,95197.50
2023-05-04T04:26:22.897Z,95195.28
2023-05-04T04:28:51.445Z,95206.88
2023-05-04T04:31:19.360Z,95201.22
2023-05-04T04:33:47.978Z,95211.41
2023-05-04T04:36:16.842Z,95202.34
2023-05-04T04:38:44.270Z,95201.84
2023-05-04T04:41:12.060Z,95202.75
2023-05-04T04:43:39.179Z,95204.91
2023-05-04T04:46:05.887Z,95201.09
2023-05-04T04:48:33.089Z,95207.91
2023-05-04T04:50:59.905Z,95215.19
2023-05-04T04:53:26.666Z,95210.41
2023-05-04T04:55:54.134Z,95202.22
2023-05-04T04:58:21.081Z,95213.50
2023-05-04T05:00:48.245Z,95211.22
2023-05-04T05:03:15.049Z,95220.53
2023-05-04T05:05:42.308Z,95213.38
2023-05-04T05:08:09.196Z,95212.84
2023-05-04T05:10:36.156Z,95218.13
2023-05-04T05:13:03.352Z,95209.28
2023-05-04T05:15:30.243Z,95222.66
2023-05-04T05:17:57.069Z,95216.84
2023-05-04T05:20:24.068Z,95214.00
2023-05-04T05:22:51.903Z,95210.75
2023-05-04T05:25:19.499Z,95203.22
2023-05-04T05:27:46.353Z,95207.78
2023-05-04T05:30:14.116Z,95197.84
2023-05-04T05:32:40.864Z,95210.81
2023-05-04T05:35:09.440Z,95205.78
2023-05-04T05:37:36.315Z,95206.41
2023-05-04T05:40:07.156Z,95207.88
2023-05-04T05:42:34.067Z,95203.16
2023-05-04T05:45:01.970Z,95204.06
2023-05-04T05:47:28.704Z,95206.13
2023-05-04T05:49:55.619Z,95204.97
2023-05-04T05:52:22.377Z,95201.47
2023-05-04T05:54:49.050Z,95201.75
2023-05-04T05:57:15.798Z,95206.44
2023-05-04T05:59:44.792Z,95198.03
2023-05-04T06:02:14.895Z,95198.63
2023-05-04T06:04:43.112Z,95203.56
2023-05-04T06:07:10.114Z,95206.16
2023-05-04T06:09:37.372Z,95198.63
2023-05-04T06:12:06.484Z,95193.41
2023-05-04T06:14:33.837Z,95202.97
2023-05-04T06:17:00.546Z,95197.81
2023-05-04T06:19:28.498Z,95196.69
2023-05-04T06:21:56.258Z,95200.75
2023-05-04T06:24:23.632Z,95194.06
2023-05-04T06:26:50.603Z,95196.44
2023-05-04T06:29:17.471Z,95198.69
2023-05-04T06:31:48.067Z,95194.91
2023-05-04T06:34:19.111Z,95201.84
2023-05-04T06:36:45.867Z,95202.28
2023-05-04T06:39:13.152Z,95185.34
2023-05-04T06:41:39.808Z,95161.22
2023-05-04T06:44:08.963Z,95174.28
2023-05-04T06:46:37.685Z,95180.06
2023-05-04T06:49:05.208Z,95182.63
2023-05-04T06:51:32.458Z,95196.53
2023-05-04T06:54:01.048Z,95190.53
2023-05-04T06:56:27.781Z,95182.03
2023-05-04T06:58:54.495Z,95190.81
2023-05-04T07:01:21.469Z,95183.50
2023-05-04T07:03:48.300Z,95184.94
2023-05-04T07:06:15.347Z,95164.41
2023-05-04T07:08:42.468Z,95196.84
2023-05-04T07:11:10.416Z,95178.91
2023-05-04T07:13:39.028Z,95183.00
2023-05-04T07:16:09.397Z,95188.81
2023-05-04T07:18:36.409Z,95179.06
2023-05-04T07:21:22.001Z,95163.03
2023-05-04T07:24:15.650Z,95193.13
2023-05-04T07:26:42.700Z,95177.00
2023-05-04T07:29:09.705Z,95180.66
2023-05-04T07:44:14.232Z,95162.72
2023-05-04T07:46:41.378Z,95174.50
2023-05-04T07:49:08.636Z,95149.16
2023-05-04T07:51:35.567Z,95172.22
2023-05-04T07:54:02.340Z,95184.72
2023-05-04T07:56:29.626Z,95160.97
2023-05-04T07:58:56.679Z,95184.09
2023-05-04T08:01:24.722Z,95167.41
2023-05-04T08:03:51.516Z,95164.75
2023-05-04T08:06:18.239Z,95154.50
2023-05-04T08:08:45.822Z,95175.41
2023-05-04T08:11:20.725Z,95160.66
2023-05-04T08:13:49.751Z,95168.09
2023-05-04T08:16:17.144Z,95180.06
2023-05-04T08:18:44.241Z,95173.03
2023-05-04T08:21:11.871Z,95170.88
2023-05-04T08:23:38.843Z,95156.41
2023-05-04T08:26:05.699Z,95174.47
2023-05-04T08:28:37.814Z,95190.72
2023-05-04T08:31:04.677Z,95171.13
2023-05-04T08:33:32.063Z,95189.47
2023-05-04T08:35:58.996Z,95157.66
2023-05-04T08:38:26.182Z,95155.09
2023-05-04T08:40:54.149Z,95180.06
2023-05-04T08:43:21.418Z,95178.28
2023-05-04T08:45:49.701Z,95164.69
2023-05-04T08:48:16.879Z,95179.41
2023-05-04T08:50:44.930Z,95146.91
2023-05-04T08:53:13.833Z,95152.72
2023-05-04T08:55:43.784Z,95157.41
2023-05-04T08:58:13.070Z,95192.38
2023-05-04T09:00:43.908Z,95163.59
2023-05-04T09:03:11.351Z,95180.91
2023-05-04T09:05:39.284Z,95194.78
2023-05-04T09:08:06.981Z,95189.81
2023-05-04T09:10:34.052Z,95191.47
2023-05-04T09:13:01.546Z,95197.66
2023-05-04T09:15:28.323Z,95190.81
2023-05-04T09:18:01.852Z,95141.09
2023-05-04T09:20:30.897Z,95159.75
2023-05-04T09:23:07.261Z,95176.88
2023-05-04T09:25:55.488Z,95166.53
2023-05-04T09:28:43.400Z,95189.81
2023-05-04T09:31:12.025Z,95155.91
2023-05-04T09:33:38.838Z,95217.97
2023-05-04T09:36:18.106Z,95185.50
2023-05-04T09:38:45.720Z,95163.44
2023-05-04T09:41:12.844Z,95212.66
2023-05-04T09:43:41.854Z,95221.13
2023-05-04T09:46:17.581Z,95249.00
2023-05-04T09:48:52.710Z,95238.41
2023-05-04T09:51:22.567Z,95244.22
2023-05-04T09:53:51.242Z,95232.34
2023-05-04T09:56:31.245Z,95213.19
2023-05-04T09:58:58.859Z,95211.84
2023-05-04T10:01:29.644Z,95212.63
2023-05-04T10:03:56.894Z,95237.81
2023-05-04T10:06:24.861Z,95278.50
2023-05-04T10:08:52.278Z,95227.06
2023-05-04T10:11:20.398Z,95243.97
2023-05-04T10:13:49.254Z,95232.97
2023-05-04T10:16:26.602Z,95206.34
2023-05-04T10:19:17.973Z,95234.31
2023-05-04T10:22:08.382Z,95207.81
2023-05-04T10:25:08.397Z,95213.69
2023-05-04T10:27:47.627Z,95210.41
2023-05-04T10:30:17.377Z,95195.56
2023-05-04T10:32:44.720Z,95192.28
2023-05-04T10:35:11.803Z,95180.28
2023-05-04T10:37:38.884Z,95190.69
2023-05-04T10:40:07.762Z,95192.53
2023-05-04T10:42:44.852Z,95177.91
2023-05-04T10:45:13.115Z,95185.09
2023-05-04T10:47:41.656Z,95202.22
2023-05-04T10:50:11.353Z,95192.03
2023-05-04T10:52:52.140Z,95177.09
2023-05-04T10:55:23.080Z,95179.84
2023-05-04T10:57:52.337Z,95177.56
2023-05-04T11:00:20.009Z,95179.81
2023-05-04T11:02:49.059Z,95153.59
2023-05-04T11:05:20.845Z,95144.09
2023-05-04T11:07:53.292Z,95199.25
2023-05-04T11:10:25.864Z,95153.31
2023-05-04T11:13:05.558Z,95148.06
2023-05-04T11:15:47.386Z,95177.78
2023-05-04T11:18:15.075Z,95171.16
2023-05-04T11:20:42.955Z,95165.06
2023-05-04T11:23:10.650Z,95181.09
2023-05-04T11:25:38.437Z,95171.16
2023-05-04T11:28:05.275Z,95188.97
2023-05-04T11:30:33.961Z,95182.59
2023-05-04T11:33:02.344Z,95178.25
2023-05-04T11:35:29.229Z,95152.53
2023-05-04T11:37:56.944Z,95159.59
2023-05-04T11:40:27.076Z,95170.63
2023-05-04T11:42:57.151Z,95173.34
2023-05-04T11:45:24.308Z,95168.00
2023-05-04T11:47:53.648Z,95133.84
2023-05-04T11:50:21.229Z,95138.34
2023-05-04T11:52:48.741Z,95156.31
2023-05-04T11:55:30.617Z,95157.75
2023-05-04T11:58:02.507Z,95154.75
2023-05-04T12:00:37.659Z,95135.72
2023-05-04T12:03:08.457Z,95102.47
2023-05-04T12:05:36.824Z,95104.22
2023-05-04T12:08:04.569Z,95108.66
2023-05-04T12:10:35.373Z,95098.44
2023-05-04T12:13:02.819Z,95087.47
2023-05-04T12:15:29.957Z,95076.63
2023-05-04T12:17:57.398Z,95065.00
2023-05-04T12:20:28.234Z,95089.09
2023-05-04T12:22:56.541Z,95058.19
2023-05-04T12:25:24.672Z,95103.75
2023-05-04T12:27:51.760Z,95099.28
2023-05-04T12:30:18.891Z,95083.75
2023-05-04T12:32:46.154Z,95072.38
2023-05-04T12:35:13.119Z,95058.72
2023-05-04T12:37:39.883Z,95061.00
2023-05-04T12:40:21.095Z,95045.22
2023-05-04T12:42:54.818Z,95064.97
2023-05-04T12:45:22.822Z,95074.31
2023-05-04T12:47:49.668Z,95022.44
2023-05-04T12:50:16.470Z,95015.38
2023-05-04T12:52:43.490Z,95050.16
2023-05-04T12:55:10.444Z,95030.81
2023-05-04T12:57:38.054Z,95034.13
2023-05-04T13:00:08.634Z,95041.41
2023-05-04T13:02:35.448Z,95001.63
2023-05-04T13:05:02.977Z,95009.00
2023-05-04T13:07:30.355Z,95053.97
2023-05-04T13:09:57.268Z,95029.72
2023-05-04T13:12:24.434Z,95023.97
2023-05-04T13:14:55.336Z,95009.81
2023-05-04T13:17:22.290Z,95007.91
2023-05-04T13:19:49.346Z,95038.22
2023-05-04T13:22:16.592Z,95014.94
2023-05-04T13:24:43.587Z,94998.94
2023-05-04T13:27:10.437Z,95019.75
2023-05-04T13:29:37.139Z,95004.41
2023-05-04T13:32:04.164Z,95018.31
2023-05-04T13:34:30.912Z,95004.44
2023-05-04T13:36:57.686Z,95000.47
2023-05-04T13:39:25.572Z,95018.97
2023-05-04T13:41:52.402Z,95003.25
2023-05-04T13:44:19.570Z,94995.47
2023-05-04T13:46:46.304Z,94991.66
2023-05-04T13:49:13.713Z,95006.31
2023-05-04T13:51:40.439Z,95007.06
2023-05-04T13:54:07.361Z,95020.41
2023-05-04T13:56:34.503Z,94989.88
2023-05-04T13:59:01.312Z,94989.16
2023-05-04T14:01:28.911Z,94975.91
2023-05-04T14:03:55.710Z,94979.50
2023-05-04T14:06:22.740Z,94976.28
2023-05-04T14:08:49.849Z,94975.94
2023-05-04T14:11:16.576Z,94977.88
2023-05-04T14:13:43.989Z,94976.09
2023-05-04T14:16:11.113Z,94952.44
2023-05-04T14:18:37.870Z,94963.44
2023-05-04T14:21:05.950Z,94936.25
2023-05-04T14:23:33.121Z,94943.38
2023-05-04T14:25:59.903Z,94925.19
2023-05-04T14:28:26.873Z,94940.31
2023-05-04T14:30:53.628Z,94956.56
2023-05-04T14:33:20.979Z,94943.91
2023-05-04T14:35:48.337Z,94938.78
2023-05-04T14:38:16.083Z,94953.94
2023-05-04T14:40:42.987Z,94942.53
2023-05-04T14:43:09.670Z,94952.94
2023-05-04T14:45:36.464Z,94940.00
2023-05-04T14:48:03.701Z,94946.63
2023-05-04T14:50:30.737Z,94917.81
2023-05-04T14:52:57.400Z,94904.91
2023-05-04T14:55:24.810Z,94890.16
2023-05-04T14:57:51.601Z,94882.66
2023-05-04T15:00:19.977Z,94900.72
2023-05-04T15:02:46.798Z,94914.94
2023-05-04T15:05:14.507Z,94919.47
2023-05-04T15:07:41.286Z,94905.03
2023-05-04T15:10:09.547Z,94890.88
2023-05-04T15:12:37.882Z,94880.75
2023-05-04T15:15:05.295Z,94892.31
2023-05-04T15:17:32.167Z,94891.53
2023-05-04T15:20:01.834Z,94877.03
2023-05-04T15:22:28.805Z,94868.97
2023-05-04T15:24:56.675Z,94873.03
2023-05-04T15:27:23.464Z,94863.69
2023-05-04T15:29:50.688Z,94890.41
2023-05-04T15:32:17.694Z,94895.06
2023-05-04T15:34:50.813Z,94894.91
2023-05-04T15:37:27.847Z,94883.63
2023-05-04T15:39:55.945Z,94870.38
2023-05-04T15:42:22.677Z,94868.81
2023-05-04T15:44:49.857Z,94885.56
2023-05-04T15:47:16.794Z,94866.38
2023-05-04T15:49:43.899Z,94852.69
2023-05-04T15:52:11.038Z,94860.78
2023-05-04T15:54:37.916Z,94889.28
2023-05-04T15:57:04.830Z,94870.91
2023-05-04T15:59:31.746Z,94873.09
2023-05-04T16:01:58.973Z,94857.47
2023-05-04T16:04:26.242Z,94846.78
2023-05-04T16:06:53.125Z,94863.69
2023-05-04T16:09:20.821Z,94865.94
2023-05-04T16:11:47.727Z,94844.69
2023-05-04T16:14:15.608Z,94841.72
2023-05-04T16:16:42.532Z,94846.19
2023-05-04T16:19:11.582Z,94844.88
2023-05-04T16:21:38.897Z,94852.44
2023-05-04T16:24:07.773Z,94870.03
2023-05-04T16:26:35.097Z,94830.41
2023-05-04T16:29:01.797Z,94848.19
2023-05-04T16:31:29.264Z,94861.81
2023-05-04T16:33:56.722Z,94842.13
2023-05-04T16:36:23.630Z,94839.78
2023-05-04T16:38:50.408Z,94849.88
2023-05-04T16:41:18.854Z,94828.47
2023-05-04T16:43:45.941Z,94833.44
2023-05-04T16:46:12.751Z,94826.84
2023-05-04T16:48:40.230Z,94826.50
2023-05-04T16:51:08.300Z,94834.66
2023-05-04T16:53:36.189Z,94815.94
2023-05-04T16:56:03.517Z,94817.44
2023-05-04T16:58:31.082Z,94824.03
2023-05-04T17:00:58.513Z,94811.66
2023-05-04T17:03:25.536Z,94804.22
2023-05-04T17:05:52.367Z,94806.81
2023-05-04T17:08:19.123Z,94817.59
2023-05-04T17:10:46.028Z,94811.63
2023-05-04T17:13:12.770Z,94808.84
2023-05-04T17:15:39.554Z,94817.50
2023-05-04T17:18:06.512Z,94837.25
2023-05-04T17:20:33.252Z,94828.00
2023-05-04T17:23:00.117Z,94839.66
2023-05-04T17:25:27.381Z,94835.53
2023-05-04T17:27:54.839Z,94835.63
2023-05-04T17:30:22.218Z,94820.44
2023-05-04T17:32:49.363Z,94832.13
2023-05-04T17:35:25.469Z,94840.63
2023-05-04T17:37:58.877Z,94830.34
2023-05-04T17:40:28.152Z,94837.69
2023-05-04T17:42:55.713Z,94821.31
2023-05-04T17:45:23.047Z,94829.59
2023-05-04T17:47:52.793Z,94824.81
2023-05-04T17:50:20.410Z,94811.06
2023-05-04T17:52:57.995Z,94810.22
2023-05-04T17:55:25.033Z,94811.59
2023-05-04T17:57:53.040Z,94816.28
2023-05-04T18:00:20.976Z,94828.13
2023-05-04T18:02:47.918Z,94813.00
2023-05-04T18:05:15.184Z,94804.50
2023-05-04T18:07:42.025Z,94814.72
2023-05-04T18:10:09.300Z,94804.91
2023-05-04T18:12:38.165Z,94815.75
2023-05-04T18:15:08.424Z,94819.69
2023-05-04T18:17:38.174Z,94833.88
2023-05-04T18:20:08.277Z,94814.16
2023-05-04T18:22:36.360Z,94827.53
2023-05-04T18:25:03.148Z,94834.84
2023-05-04T18:27:33.979Z,94850.03
2023-05-04T18:30:05.152Z,94862.31
2023-05-04T18:32:32.138Z,94823.03
2023-05-04T18:34:58.921Z,94855.34
2023-05-04T18:37:25.936Z,94840.00
2023-05-04T18:39:53.003Z,94828.84
2023-05-04T18:42:19.841Z,94818.63
2023-05-04T18:44:47.202Z,94834.75
2023-05-04T18:47:14.213Z,94831.50
2023-05-04T18:49:41.291Z,94822.84
2023-05-04T18:52:08.170Z,94829.25
2023-05-04T18:54:35.036Z,94828.69
2023-05-04T18:57:03.408Z,94839.19
2023-05-04T18:59:34.093Z,94849.16
2023-05-04T19:02:02.075Z,94860.34
2023-05-04T19:04:29.010Z,94855.06
2023-05-04T19:06:57.655Z,94895.22
2023-05-04T19:09:24.494Z,94877.47
2023-05-04T19:11:52.285Z,94876.06
2023-05-04T19:14:19.407Z,94876.31
2023-05-04T19:16:46.108Z,94877.22
2023-05-04T19:19:13.339Z,94864.34
2023-05-04T19:21:40.454Z,94883.03
2023-05-04T19:24:08.089Z,94900.28
2023-05-04T19:26:35.359Z,94890.22
2023-05-04T19:29:02.763Z,94863.69
2023-05-04T19:31:29.548Z,94877.81
2023-05-04T19:33:56.281Z,94845.81
2023-05-04T19:36:27.501Z,94851.47
2023-05-04T19:38:54.389Z,94858.78
2023-05-04T19:41:22.233Z,94861.38
2023-05-04T19:43:49.238Z,94876.38
2023-05-04T19:46:16.715Z,94860.75
2023-05-04T19:48:43.825Z,94864.50
2023-05-04T19:51:10.554Z,94879.69
2023-05-04T19:53:37.292Z,94882.25
2023-05-04T19:56:04.088Z,94883.97
2023-05-04T19:58:31.713Z,94871.09
2023-05-04T20:00:58.874Z,94836.06
2023-05-04T20:03:25.727Z,94848.09
2023-05-04T20:05:52.536Z,94830.09
2023-05-04T20:08:19.478Z,94836.25
2023-05-04T20:10:47.224Z,94854.22
2023-05-04T20:13:14.793Z,94851.22
2023-05-04T20:15:43.044Z,94853.16
2023-05-04T20:18:09.956Z,94869.34
2023-05-04T20:20:37.600Z,94892.34
2023-05-04T20:23:04.487Z,94896.50
2023-05-04T20:25:31.865Z,94868.72
2023-05-04T20:27:58.924Z,94877.44
2023-05-04T20:30:28.424Z,94887.69
2023-05-04T20:32:55.901Z,94890.03
2023-05-04T20:35:22.945Z,94887.34
2023-05-04T20:37:49.681Z,94874.72
2023-05-04T20:40:17.048Z,94872.53
2023-05-04T20:42:44.199Z,94865.88
2023-05-04T20:45:11.391Z,94879.47
2023-05-04T20:47:38.569Z,94871.88
2023-05-04T20:50:08.167Z,94865.00
2023-05-04T20:52:35.073Z,94857.59
2023-05-04T20:55:02.273Z,94870.25
2023-05-04T20:57:29.235Z,94874.06
2023-05-04T20:59:56.537Z,94888.47
2023-05-04T21:02:23.415Z,94907.25
2023-05-04T21:04:50.551Z,94916.75
2023-05-04T21:07:18.607Z,94866.47
2023-05-04T21:09:45.438Z,94878.19
2023-05-04T21:12:12.132Z,94872.28
2023-05-04T21:14:39.166Z,94882.44
2023-05-04T21:17:07.084Z,94853.09
2023-05-04T21:19:33.778Z,94873.38
2023-05-04T21:22:00.510Z,94904.59
2023-05-04T21:24:27.199Z,94871.38
2023-05-04T21:26:54.367Z,94880.03
2023-05-04T21:29:21.049Z,94874.13
2023-05-04T21:31:49.003Z,94895.03
2023-05-04T21:34:15.981Z,94894.28
2023-05-04T21:36:44.856Z,94892.94
2023-05-04T21:39:12.044Z,94908.09
2023-05-04T21:41:42.153Z,94845.19
2023-05-04T21:44:11.398Z,94868.84
2023-05-04T21:46:41.615Z,94896.91
2023-05-04T21:49:08.820Z,94898.53
2023-05-04T21:51:35.635Z,94894.03
2023-05-04T21:54:02.547Z,94897.59
2023-05-04T21:56:29.327Z,94905.66
2023-05-04T21:58:55.995Z,94907.81
2023-05-04T22:01:23.319Z,94908.81
2023-05-04T22:03:50.602Z,94871.81
2023-05-04T22:06:17.665Z,94871.03
2023-05-04T22:08:45.162Z,94862.72
2023-05-04T22:11:11.982Z,94907.38
2023-05-04T22:13:38.740Z,94931.09
2023-05-04T22:16:08.768Z,94930.94
2023-05-04T22:18:35.614Z,94893.31
2023-05-04T22:21:02.793Z,94933.56
2023-05-04T22:23:29.588Z,94923.97
2023-05-04T22:25:56.487Z,94920.81
2023-05-04T22:28:23.610Z,94915.53
2023-05-04T22:30:50.616Z,94914.91
2023-05-04T22:33:17.415Z,94901.31
2023-05-04T22:35:44.722Z,94911.97
2023-05-04T22:38:12.017Z,94932.84
2023-05-04T22:40:40.322Z,94914.75
2023-05-04T22:43:07.612Z,94941.34
2023-05-04T22:45:38.454Z,94918.31
2023-05-04T22:48:05.266Z,94941.19
2023-05-04T22:50:32.107Z,94941.72
2023-05-04T22:52:58.953Z,94923.56
2023-05-04T22:55:26.064Z,94909.59
2023-05-04T22:57:52.788Z,94937.09
2023-05-04T23:00:20.893Z,94933.50
2023-05-04T23:02:47.804Z,94934.72
2023-05-04T23:05:15.033Z,94933.41
2023-05-04T23:07:41.811Z,94948.38
2023-05-04T23:10:09.752Z,94947.59
2023-05-04T23:12:36.622Z,94949.97
2023-05-04T23:15:03.825Z,94906.13
2023-05-04T23:17:31.028Z,94935.03
2023-05-04T23:19:57.782Z,94923.22
2023-05-04T23:22:24.549Z,94938.69
2023-05-04T23:24:51.310Z,94933.22
2023-05-04T23:27:18.658Z,94920.69
2023-05-04T23:29:45.406Z,94937.31
2023-05-04T23:32:12.100Z,94931.13
2023-05-04T23:34:39.170Z,94935.63
2023-05-04T23:37:06.003Z,94928.31
2023-05-04T23:39:32.696Z,94923.84
2023-05-04T23:41:59.508Z,94925.66
2023-05-04T23:44:26.616Z,94897.84
2023-05-04T23:46:53.374Z,94928.78
2023-05-04T23:49:20.073Z,94919.88
2023-05-04T23:51:46.861Z,94926.34
2023-05-04T23:54:15.162Z,94924.03
2023-05-04T23:56:41.848Z,94917.44
2023-05-04T23:59:08.587Z,94914.53
